Terminal Aerodrome Forecast
Issued by NWS Mt. Holly, NJ

Home | Current Version | Previous Version | Text Only | Print | Product List | Glossary On
Versions: 1 2 3 4 5 6 7 8 9 10 11 12 13 14 15 16 17 18 19 20 21 22
034
FTUS41 KPHI 070537
TAFPHL
TAF
KPHL 070537Z 0706/0812 VRB02KT P6SM SCT200
     FM071400 02004KT P6SM SKC
     FM072000 05006KT P6SM SCT200
     FM080500 03010KT P6SM BKN100=

USA.gov is the U.S. government's official web portal to all federal, state and local government web resources and services.